sensor_id;sensor_type;location;lat;lon;timestamp;P1;durP1;ratioP1;P2;durP2;ratioP2
4980;SDS011;2507;50.392;7.482;2023-03-23T00:02:13;1.83;;;1.07;;
4980;SDS011;2507;50.392;7.482;2023-03-23T00:04:39;3.10;;;1.40;;
4980;SDS011;2507;50.392;7.482;2023-03-23T00:07:04;1.37;;;1.27;;
4980;SDS011;2507;50.392;7.482;2023-03-23T00:09:30;1.90;;;1.50;;
4980;SDS011;2507;50.392;7.482;2023-03-23T00:11:59;2.67;;;1.30;;
4980;SDS011;2507;50.392;7.482;2023-03-23T00:14:30;1.40;;;1.30;;
4980;SDS011;2507;50.392;7.482;2023-03-23T00:17:05;1.63;;;1.53;;
4980;SDS011;2507;50.392;7.482;2023-03-23T00:19:31;1.60;;;1.50;;
4980;SDS011;2507;50.392;7.482;2023-03-23T00:21:57;1.40;;;1.30;;
4980;SDS011;2507;50.392;7.482;2023-03-23T00:24:25;1.47;;;1.37;;
4980;SDS011;2507;50.392;7.482;2023-03-23T00:26:50;1.50;;;1.40;;
4980;SDS011;2507;50.392;7.482;2023-03-23T00:29:19;1.70;;;1.47;;
4980;SDS011;2507;50.392;7.482;2023-03-23T00:31:46;1.10;;;1.10;;
4980;SDS011;2507;50.392;7.482;2023-03-23T00:34:13;1.53;;;1.23;;
4980;SDS011;2507;50.392;7.482;2023-03-23T00:36:44;1.43;;;1.37;;
4980;SDS011;2507;50.392;7.482;2023-03-23T00:39:11;1.50;;;1.40;;
4980;SDS011;2507;50.392;7.482;2023-03-23T00:41:36;1.63;;;1.53;;
4980;SDS011;2507;50.392;7.482;2023-03-23T00:44:03;1.43;;;1.33;;
4980;SDS011;2507;50.392;7.482;2023-03-23T00:46:28;1.27;;;1.17;;
4980;SDS011;2507;50.392;7.482;2023-03-23T00:48:54;1.47;;;1.37;;
4980;SDS011;2507;50.392;7.482;2023-03-23T00:51:21;2.93;;;1.30;;
4980;SDS011;2507;50.392;7.482;2023-03-23T00:53:47;1.40;;;1.30;;
4980;SDS011;2507;50.392;7.482;2023-03-23T00:56:12;1.17;;;1.17;;
4980;SDS011;2507;50.392;7.482;2023-03-23T00:58:38;1.10;;;1.10;;
4980;SDS011;2507;50.392;7.482;2023-03-23T01:01:04;1.40;;;1.30;;
4980;SDS011;2507;50.392;7.482;2023-03-23T01:03:30;1.40;;;1.27;;
4980;SDS011;2507;50.392;7.482;2023-03-23T01:05:55;1.43;;;1.33;;
4980;SDS011;2507;50.392;7.482;2023-03-23T01:08:21;1.70;;;1.57;;
4980;SDS011;2507;50.392;7.482;2023-03-23T01:10:48;1.20;;;1.20;;
4980;SDS011;2507;50.392;7.482;2023-03-23T01:13:14;1.20;;;1.20;;
4980;SDS011;2507;50.392;7.482;2023-03-23T01:15:40;1.73;;;1.07;;
4980;SDS011;2507;50.392;7.482;2023-03-23T01:18:06;1.50;;;1.40;;
4980;SDS011;2507;50.392;7.482;2023-03-23T01:20:32;1.13;;;1.13;;
4980;SDS011;2507;50.392;7.482;2023-03-23T01:22:58;2.50;;;1.37;;
4980;SDS011;2507;50.392;7.482;2023-03-23T01:25:27;1.63;;;1.53;;
4980;SDS011;2507;50.392;7.482;2023-03-23T01:27:54;1.53;;;1.50;;
4980;SDS011;2507;50.392;7.482;2023-03-23T01:30:19;1.30;;;1.20;;
4980;SDS011;2507;50.392;7.482;2023-03-23T01:32:45;1.23;;;1.23;;
4980;SDS011;2507;50.392;7.482;2023-03-23T01:35:12;2.93;;;1.97;;
4980;SDS011;2507;50.392;7.482;2023-03-23T01:37:38;1.43;;;1.33;;
4980;SDS011;2507;50.392;7.482;2023-03-23T01:40:04;1.33;;;1.20;;
4980;SDS011;2507;50.392;7.482;2023-03-23T01:42:31;1.53;;;1.17;;
4980;SDS011;2507;50.392;7.482;2023-03-23T01:47:43;1.27;;;1.17;;
4980;SDS011;2507;50.392;7.482;2023-03-23T01:50:09;1.70;;;1.60;;
4980;SDS011;2507;50.392;7.482;2023-03-23T01:52:35;3.23;;;1.73;;
4980;SDS011;2507;50.392;7.482;2023-03-23T01:55:01;1.63;;;1.60;;
4980;SDS011;2507;50.392;7.482;2023-03-23T01:57:28;1.20;;;1.10;;
4980;SDS011;2507;50.392;7.482;2023-03-23T01:59:55;1.33;;;1.33;;
4980;SDS011;2507;50.392;7.482;2023-03-23T02:02:23;1.47;;;1.37;;
4980;SDS011;2507;50.392;7.482;2023-03-23T02:04:50;1.37;;;1.13;;
4980;SDS011;2507;50.392;7.482;2023-03-23T02:07:18;1.33;;;1.27;;
4980;SDS011;2507;50.392;7.482;2023-03-23T02:09:46;1.50;;;1.37;;
4980;SDS011;2507;50.392;7.482;2023-03-23T02:12:12;1.10;;;1.00;;
4980;SDS011;2507;50.392;7.482;2023-03-23T02:14:37;1.27;;;0.93;;
4980;SDS011;2507;50.392;7.482;2023-03-23T02:17:18;1.50;;;1.40;;
4980;SDS011;2507;50.392;7.482;2023-03-23T02:28:44;1.60;;;1.50;;
4980;SDS011;2507;50.392;7.482;2023-03-23T02:31:43;1.60;;;1.50;;
4980;SDS011;2507;50.392;7.482;2023-03-23T02:34:20;1.80;;;1.70;;
4980;SDS011;2507;50.392;7.482;2023-03-23T02:37:00;1.83;;;1.20;;
4980;SDS011;2507;50.392;7.482;2023-03-23T02:39:29;2.83;;;1.27;;
4980;SDS011;2507;50.392;7.482;2023-03-23T02:42:00;1.50;;;1.50;;
4980;SDS011;2507;50.392;7.482;2023-03-23T02:44:29;1.40;;;1.40;;
4980;SDS011;2507;50.392;7.482;2023-03-23T02:46:57;1.50;;;1.40;;
4980;SDS011;2507;50.392;7.482;2023-03-23T02:49:25;1.57;;;1.47;;
4980;SDS011;2507;50.392;7.482;2023-03-23T02:51:55;1.13;;;1.13;;
4980;SDS011;2507;50.392;7.482;2023-03-23T02:54:24;6.83;;;1.50;;
4980;SDS011;2507;50.392;7.482;2023-03-23T02:56:51;1.37;;;1.27;;
4980;SDS011;2507;50.392;7.482;2023-03-23T02:59:19;1.50;;;1.40;;
4980;SDS011;2507;50.392;7.482;2023-03-23T03:01:45;1.23;;;1.23;;
4980;SDS011;2507;50.392;7.482;2023-03-23T03:04:17;1.10;;;1.10;;
4980;SDS011;2507;50.392;7.482;2023-03-23T03:13:01;1.67;;;1.57;;
4980;SDS011;2507;50.392;7.482;2023-03-23T03:15:27;0.93;;;0.93;;
4980;SDS011;2507;50.392;7.482;2023-03-23T03:17:55;1.40;;;1.40;;
4980;SDS011;2507;50.392;7.482;2023-03-23T03:20:26;1.30;;;1.30;;
4980;SDS011;2507;50.392;7.482;2023-03-23T03:22:54;1.13;;;1.13;;
4980;SDS011;2507;50.392;7.482;2023-03-23T03:25:22;1.40;;;1.30;;
4980;SDS011;2507;50.392;7.482;2023-03-23T03:27:48;1.30;;;1.30;;
4980;SDS011;2507;50.392;7.482;2023-03-23T03:30:17;1.70;;;1.60;;
4980;SDS011;2507;50.392;7.482;2023-03-23T03:32:50;1.40;;;1.40;;
4980;SDS011;2507;50.392;7.482;2023-03-23T03:35:18;1.70;;;1.60;;
4980;SDS011;2507;50.392;7.482;2023-03-23T03:37:46;2.63;;;1.60;;
4980;SDS011;2507;50.392;7.482;2023-03-23T03:40:13;1.77;;;1.40;;
4980;SDS011;2507;50.392;7.482;2023-03-23T03:42:42;1.87;;;1.77;;
4980;SDS011;2507;50.392;7.482;2023-03-23T03:45:09;2.40;;;1.83;;
4980;SDS011;2507;50.392;7.482;2023-03-23T03:47:36;2.30;;;1.47;;
4980;SDS011;2507;50.392;7.482;2023-03-23T03:50:02;1.63;;;1.53;;
4980;SDS011;2507;50.392;7.482;2023-03-23T03:52:27;1.50;;;1.50;;
4980;SDS011;2507;50.392;7.482;2023-03-23T03:54:53;1.40;;;1.40;;
4980;SDS011;2507;50.392;7.482;2023-03-23T03:57:19;1.50;;;1.40;;
4980;SDS011;2507;50.392;7.482;2023-03-23T03:59:45;1.67;;;1.57;;
4980;SDS011;2507;50.392;7.482;2023-03-23T04:02:12;1.97;;;1.50;;
4980;SDS011;2507;50.392;7.482;2023-03-23T04:04:41;1.93;;;1.83;;
4980;SDS011;2507;50.392;7.482;2023-03-23T04:07:06;2.80;;;1.40;;
4980;SDS011;2507;50.392;7.482;2023-03-23T04:09:32;1.30;;;1.30;;
4980;SDS011;2507;50.392;7.482;2023-03-23T04:11:57;1.50;;;1.40;;
4980;SDS011;2507;50.392;7.482;2023-03-23T04:14:22;1.77;;;1.17;;
4980;SDS011;2507;50.392;7.482;2023-03-23T04:16:48;1.60;;;1.60;;
4980;SDS011;2507;50.392;7.482;2023-03-23T04:19:21;1.70;;;1.60;;
4980;SDS011;2507;50.392;7.482;2023-03-23T04:21:47;1.50;;;1.50;;
4980;SDS011;2507;50.392;7.482;2023-03-23T04:24:13;1.90;;;1.40;;
4980;SDS011;2507;50.392;7.482;2023-03-23T04:26:39;1.80;;;1.70;;
4980;SDS011;2507;50.392;7.482;2023-03-23T04:29:07;2.80;;;1.53;;
4980;SDS011;2507;50.392;7.482;2023-03-23T04:31:33;1.80;;;1.70;;
4980;SDS011;2507;50.392;7.482;2023-03-23T04:33:59;1.90;;;1.80;;
4980;SDS011;2507;50.392;7.482;2023-03-23T04:36:26;1.50;;;1.40;;
4980;SDS011;2507;50.392;7.482;2023-03-23T04:38:53;1.80;;;1.70;;
4980;SDS011;2507;50.392;7.482;2023-03-23T04:41:22;5.03;;;1.80;;
4980;SDS011;2507;50.392;7.482;2023-03-23T04:43:49;1.40;;;1.40;;
4980;SDS011;2507;50.392;7.482;2023-03-23T04:46:17;1.90;;;1.80;;
4980;SDS011;2507;50.392;7.482;2023-03-23T04:48:44;4.10;;;1.83;;
4980;SDS011;2507;50.392;7.482;2023-03-23T04:51:10;1.90;;;1.80;;
4980;SDS011;2507;50.392;7.482;2023-03-23T04:53:37;2.07;;;1.87;;
4980;SDS011;2507;50.392;7.482;2023-03-23T04:56:03;4.30;;;1.63;;
4980;SDS011;2507;50.392;7.482;2023-03-23T04:58:28;1.47;;;1.47;;
4980;SDS011;2507;50.392;7.482;2023-03-23T05:00:54;2.47;;;1.87;;
4980;SDS011;2507;50.392;7.482;2023-03-23T05:03:20;2.00;;;1.90;;
4980;SDS011;2507;50.392;7.482;2023-03-23T05:05:46;1.93;;;1.83;;
4980;SDS011;2507;50.392;7.482;2023-03-23T05:08:16;1.90;;;1.80;;
4980;SDS011;2507;50.392;7.482;2023-03-23T05:10:49;2.13;;;1.87;;
4980;SDS011;2507;50.392;7.482;2023-03-23T05:13:18;3.10;;;1.87;;
4980;SDS011;2507;50.392;7.482;2023-03-23T05:15:43;1.73;;;1.70;;
4980;SDS011;2507;50.392;7.482;2023-03-23T05:18:09;2.20;;;1.70;;
4980;SDS011;2507;50.392;7.482;2023-03-23T05:20:35;1.77;;;1.67;;
4980;SDS011;2507;50.392;7.482;2023-03-23T05:23:01;2.03;;;1.80;;
4980;SDS011;2507;50.392;7.482;2023-03-23T05:25:26;1.67;;;1.63;;
4980;SDS011;2507;50.392;7.482;2023-03-23T05:27:51;1.80;;;1.70;;
4980;SDS011;2507;50.392;7.482;2023-03-23T05:30:18;2.80;;;1.93;;
4980;SDS011;2507;50.392;7.482;2023-03-23T05:32:44;2.50;;;1.60;;
4980;SDS011;2507;50.392;7.482;2023-03-23T05:35:10;1.93;;;1.73;;
4980;SDS011;2507;50.392;7.482;2023-03-23T05:37:37;1.50;;;1.50;;
4980;SDS011;2507;50.392;7.482;2023-03-23T05:40:03;2.03;;;1.93;;
4980;SDS011;2507;50.392;7.482;2023-03-23T05:42:34;1.60;;;1.50;;
4980;SDS011;2507;50.392;7.482;2023-03-23T05:45:02;3.73;;;1.80;;
4980;SDS011;2507;50.392;7.482;2023-03-23T05:47:28;1.67;;;1.60;;
4980;SDS011;2507;50.392;7.482;2023-03-23T05:49:53;2.43;;;1.80;;
4980;SDS011;2507;50.392;7.482;2023-03-23T05:52:19;3.43;;;1.73;;
4980;SDS011;2507;50.392;7.482;2023-03-23T05:54:45;1.90;;;1.80;;
4980;SDS011;2507;50.392;7.482;2023-03-23T05:57:11;2.23;;;2.13;;
4980;SDS011;2507;50.392;7.482;2023-03-23T05:59:36;2.00;;;1.90;;
4980;SDS011;2507;50.392;7.482;2023-03-23T06:02:01;1.93;;;1.87;;
4980;SDS011;2507;50.392;7.482;2023-03-23T06:04:27;2.40;;;1.80;;
4980;SDS011;2507;50.392;7.482;2023-03-23T06:06:52;1.70;;;1.60;;
4980;SDS011;2507;50.392;7.482;2023-03-23T06:09:18;1.93;;;1.83;;
4980;SDS011;2507;50.392;7.482;2023-03-23T06:11:44;2.03;;;1.93;;
4980;SDS011;2507;50.392;7.482;2023-03-23T06:14:09;1.50;;;1.50;;
4980;SDS011;2507;50.392;7.482;2023-03-23T06:16:35;2.00;;;1.80;;
4980;SDS011;2507;50.392;7.482;2023-03-23T06:19:00;2.07;;;1.97;;
4980;SDS011;2507;50.392;7.482;2023-03-23T06:21:26;1.90;;;1.80;;
4980;SDS011;2507;50.392;7.482;2023-03-23T06:23:52;2.00;;;1.90;;
4980;SDS011;2507;50.392;7.482;2023-03-23T06:26:19;2.40;;;2.30;;
4980;SDS011;2507;50.392;7.482;2023-03-23T06:28:46;2.20;;;2.00;;
4980;SDS011;2507;50.392;7.482;2023-03-23T06:31:12;3.80;;;1.83;;
4980;SDS011;2507;50.392;7.482;2023-03-23T06:33:39;2.37;;;2.17;;
4980;SDS011;2507;50.392;7.482;2023-03-23T06:36:05;2.93;;;2.10;;
4980;SDS011;2507;50.392;7.482;2023-03-23T06:38:31;3.00;;;2.40;;
4980;SDS011;2507;50.392;7.482;2023-03-23T06:40:57;2.90;;;2.10;;
4980;SDS011;2507;50.392;7.482;2023-03-23T06:43:23;2.97;;;2.07;;
4980;SDS011;2507;50.392;7.482;2023-03-23T06:45:48;3.10;;;2.43;;
4980;SDS011;2507;50.392;7.482;2023-03-23T06:48:14;2.10;;;2.00;;
4980;SDS011;2507;50.392;7.482;2023-03-23T06:50:42;2.13;;;1.93;;
4980;SDS011;2507;50.392;7.482;2023-03-23T06:53:11;2.13;;;1.63;;
4980;SDS011;2507;50.392;7.482;2023-03-23T06:55:36;2.80;;;2.23;;
4980;SDS011;2507;50.392;7.482;2023-03-23T06:58:03;1.87;;;1.77;;
4980;SDS011;2507;50.392;7.482;2023-03-23T07:00:30;2.53;;;1.97;;
4980;SDS011;2507;50.392;7.482;2023-03-23T07:02:56;1.67;;;1.67;;
4980;SDS011;2507;50.392;7.482;2023-03-23T07:05:21;3.60;;;1.97;;
4980;SDS011;2507;50.392;7.482;2023-03-23T07:07:46;1.40;;;1.40;;
4980;SDS011;2507;50.392;7.482;2023-03-23T07:10:12;2.17;;;2.03;;
4980;SDS011;2507;50.392;7.482;2023-03-23T07:12:37;3.00;;;1.77;;
4980;SDS011;2507;50.392;7.482;2023-03-23T07:15:03;2.10;;;2.00;;
4980;SDS011;2507;50.392;7.482;2023-03-23T07:17:29;1.73;;;1.60;;
4980;SDS011;2507;50.392;7.482;2023-03-23T07:19:55;2.00;;;1.90;;
4980;SDS011;2507;50.392;7.482;2023-03-23T07:22:20;1.60;;;1.50;;
4980;SDS011;2507;50.392;7.482;2023-03-23T07:24:46;1.60;;;1.50;;
4980;SDS011;2507;50.392;7.482;2023-03-23T07:27:11;1.90;;;1.80;;
4980;SDS011;2507;50.392;7.482;2023-03-23T07:29:36;2.27;;;2.07;;
4980;SDS011;2507;50.392;7.482;2023-03-23T07:32:03;1.50;;;1.40;;
4980;SDS011;2507;50.392;7.482;2023-03-23T07:34:30;2.60;;;1.70;;
4980;SDS011;2507;50.392;7.482;2023-03-23T07:36:55;1.80;;;1.70;;
4980;SDS011;2507;50.392;7.482;2023-03-23T07:39:20;1.90;;;1.80;;
4980;SDS011;2507;50.392;7.482;2023-03-23T07:41:48;3.07;;;1.80;;
4980;SDS011;2507;50.392;7.482;2023-03-23T07:44:13;2.10;;;1.67;;
4980;SDS011;2507;50.392;7.482;2023-03-23T07:46:39;1.60;;;1.50;;
4980;SDS011;2507;50.392;7.482;2023-03-23T07:49:04;3.33;;;1.60;;
4980;SDS011;2507;50.392;7.482;2023-03-23T07:51:30;1.53;;;1.40;;
4980;SDS011;2507;50.392;7.482;2023-03-23T07:53:57;1.47;;;1.37;;
4980;SDS011;2507;50.392;7.482;2023-03-23T07:56:22;1.50;;;1.50;;
4980;SDS011;2507;50.392;7.482;2023-03-23T07:58:48;1.40;;;1.40;;
4980;SDS011;2507;50.392;7.482;2023-03-23T08:01:13;1.57;;;1.47;;
4980;SDS011;2507;50.392;7.482;2023-03-23T08:03:39;1.93;;;1.83;;
4980;SDS011;2507;50.392;7.482;2023-03-23T08:06:04;3.43;;;1.70;;
4980;SDS011;2507;50.392;7.482;2023-03-23T08:08:30;2.63;;;2.07;;
4980;SDS011;2507;50.392;7.482;2023-03-23T08:10:56;1.90;;;1.40;;
4980;SDS011;2507;50.392;7.482;2023-03-23T08:13:22;10.57;;;2.23;;
4980;SDS011;2507;50.392;7.482;2023-03-23T08:15:47;2.20;;;1.67;;
4980;SDS011;2507;50.392;7.482;2023-03-23T08:18:13;2.00;;;1.70;;
4980;SDS011;2507;50.392;7.482;2023-03-23T08:20:39;1.90;;;1.53;;
4980;SDS011;2507;50.392;7.482;2023-03-23T08:23:05;1.77;;;1.60;;
4980;SDS011;2507;50.392;7.482;2023-03-23T08:25:31;1.53;;;1.40;;
4980;SDS011;2507;50.392;7.482;2023-03-23T08:27:57;2.00;;;1.40;;
4980;SDS011;2507;50.392;7.482;2023-03-23T08:30:23;1.70;;;1.60;;
4980;SDS011;2507;50.392;7.482;2023-03-23T08:32:50;1.97;;;1.87;;
4980;SDS011;2507;50.392;7.482;2023-03-23T08:35:17;1.83;;;1.57;;
4980;SDS011;2507;50.392;7.482;2023-03-23T08:37:44;1.63;;;1.53;;
4980;SDS011;2507;50.392;7.482;2023-03-23T08:40:11;1.97;;;1.83;;
4980;SDS011;2507;50.392;7.482;2023-03-23T08:42:39;5.03;;;1.67;;
4980;SDS011;2507;50.392;7.482;2023-03-23T08:45:06;1.40;;;1.30;;
4980;SDS011;2507;50.392;7.482;2023-03-23T08:47:33;1.30;;;1.30;;
4980;SDS011;2507;50.392;7.482;2023-03-23T08:50:00;1.43;;;1.33;;
4980;SDS011;2507;50.392;7.482;2023-03-23T08:52:26;1.57;;;1.40;;
4980;SDS011;2507;50.392;7.482;2023-03-23T08:54:53;1.17;;;1.17;;
4980;SDS011;2507;50.392;7.482;2023-03-23T08:57:18;1.40;;;1.30;;
4980;SDS011;2507;50.392;7.482;2023-03-23T08:59:43;1.93;;;1.73;;
4980;SDS011;2507;50.392;7.482;2023-03-23T09:02:10;1.97;;;1.30;;
4980;SDS011;2507;50.392;7.482;2023-03-23T09:04:39;1.63;;;1.10;;
4980;SDS011;2507;50.392;7.482;2023-03-23T09:07:07;1.47;;;1.37;;
4980;SDS011;2507;50.392;7.482;2023-03-23T09:09:34;1.60;;;1.00;;
4980;SDS011;2507;50.392;7.482;2023-03-23T09:11:59;1.93;;;1.27;;
4980;SDS011;2507;50.392;7.482;2023-03-23T09:14:25;0.90;;;0.90;;
4980;SDS011;2507;50.392;7.482;2023-03-23T09:16:50;1.03;;;1.00;;
4980;SDS011;2507;50.392;7.482;2023-03-23T09:19:16;1.83;;;1.73;;
4980;SDS011;2507;50.392;7.482;2023-03-23T09:21:41;2.50;;;1.63;;
4980;SDS011;2507;50.392;7.482;2023-03-23T09:24:07;1.53;;;1.17;;
4980;SDS011;2507;50.392;7.482;2023-03-23T09:26:32;1.30;;;1.20;;
4980;SDS011;2507;50.392;7.482;2023-03-23T09:28:57;0.90;;;0.90;;
4980;SDS011;2507;50.392;7.482;2023-03-23T09:31:23;2.30;;;1.47;;
4980;SDS011;2507;50.392;7.482;2023-03-23T09:33:51;1.73;;;1.07;;
4980;SDS011;2507;50.392;7.482;2023-03-23T09:36:17;1.10;;;1.10;;
4980;SDS011;2507;50.392;7.482;2023-03-23T09:38:46;1.03;;;0.90;;
4980;SDS011;2507;50.392;7.482;2023-03-23T09:49:03;1.27;;;1.17;;
4980;SDS011;2507;50.392;7.482;2023-03-23T09:51:44;1.73;;;1.40;;
4980;SDS011;2507;50.392;7.482;2023-03-23T09:54:19;1.43;;;1.20;;
4980;SDS011;2507;50.392;7.482;2023-03-23T09:56:51;0.93;;;0.93;;
4980;SDS011;2507;50.392;7.482;2023-03-23T09:59:23;1.17;;;1.17;;
4980;SDS011;2507;50.392;7.482;2023-03-23T10:01:57;1.07;;;1.07;;
4980;SDS011;2507;50.392;7.482;2023-03-23T10:04:33;1.03;;;1.03;;
4980;SDS011;2507;50.392;7.482;2023-03-23T10:07:10;1.20;;;1.10;;
4980;SDS011;2507;50.392;7.482;2023-03-23T10:09:38;1.07;;;0.97;;
4980;SDS011;2507;50.392;7.482;2023-03-23T10:12:18;0.93;;;0.83;;
4980;SDS011;2507;50.392;7.482;2023-03-23T10:17:28;1.60;;;1.30;;
4980;SDS011;2507;50.392;7.482;2023-03-23T10:25:32;1.17;;;1.00;;
4980;SDS011;2507;50.392;7.482;2023-03-23T10:28:19;1.30;;;0.90;;
4980;SDS011;2507;50.392;7.482;2023-03-23T10:30:51;1.30;;;1.20;;
4980;SDS011;2507;50.392;7.482;2023-03-23T10:33:22;1.30;;;1.10;;
4980;SDS011;2507;50.392;7.482;2023-03-23T10:38:26;1.03;;;1.03;;
4980;SDS011;2507;50.392;7.482;2023-03-23T10:40:59;1.13;;;1.00;;
4980;SDS011;2507;50.392;7.482;2023-03-23T10:43:28;2.80;;;0.93;;
4980;SDS011;2507;50.392;7.482;2023-03-23T10:45:55;0.93;;;0.90;;
4980;SDS011;2507;50.392;7.482;2023-03-23T10:48:28;2.03;;;1.20;;
4980;SDS011;2507;50.392;7.482;2023-03-23T10:50:57;1.07;;;1.07;;
4980;SDS011;2507;50.392;7.482;2023-03-23T10:53:33;1.47;;;1.13;;
4980;SDS011;2507;50.392;7.482;2023-03-23T10:56:02;3.00;;;1.57;;
4980;SDS011;2507;50.392;7.482;2023-03-23T10:58:30;0.90;;;0.90;;
4980;SDS011;2507;50.392;7.482;2023-03-23T11:01:01;1.07;;;1.03;;
4980;SDS011;2507;50.392;7.482;2023-03-23T11:03:44;1.10;;;1.00;;
4980;SDS011;2507;50.392;7.482;2023-03-23T11:06:20;1.97;;;1.10;;
4980;SDS011;2507;50.392;7.482;2023-03-23T11:08:56;1.00;;;1.00;;
4980;SDS011;2507;50.392;7.482;2023-03-23T11:11:27;1.37;;;1.13;;
4980;SDS011;2507;50.392;7.482;2023-03-23T11:16:44;0.93;;;0.83;;
4980;SDS011;2507;50.392;7.482;2023-03-23T11:19:21;6.10;;;1.30;;
4980;SDS011;2507;50.392;7.482;2023-03-23T11:21:50;0.70;;;0.70;;
4980;SDS011;2507;50.392;7.482;2023-03-23T11:24:18;0.87;;;0.87;;
4980;SDS011;2507;50.392;7.482;2023-03-23T11:26:47;0.90;;;0.90;;
4980;SDS011;2507;50.392;7.482;2023-03-23T11:31:43;2.10;;;0.80;;
4980;SDS011;2507;50.392;7.482;2023-03-23T11:34:18;1.27;;;0.80;;
4980;SDS011;2507;50.392;7.482;2023-03-23T11:36:51;2.30;;;0.77;;
4980;SDS011;2507;50.392;7.482;2023-03-23T11:39:33;0.90;;;0.70;;
4980;SDS011;2507;50.392;7.482;2023-03-23T11:42:12;2.00;;;1.90;;
4980;SDS011;2507;50.392;7.482;2023-03-23T11:44:43;0.97;;;0.97;;
4980;SDS011;2507;50.392;7.482;2023-03-23T11:49:41;1.43;;;0.93;;
4980;SDS011;2507;50.392;7.482;2023-03-23T11:55:00;1.40;;;1.40;;
4980;SDS011;2507;50.392;7.482;2023-03-23T11:57:38;1.07;;;1.03;;
4980;SDS011;2507;50.392;7.482;2023-03-23T12:00:16;0.93;;;0.83;;
4980;SDS011;2507;50.392;7.482;2023-03-23T12:02:48;1.80;;;1.10;;
4980;SDS011;2507;50.392;7.482;2023-03-23T12:05:30;1.10;;;0.80;;
4980;SDS011;2507;50.392;7.482;2023-03-23T12:08:19;1.43;;;0.80;;
4980;SDS011;2507;50.392;7.482;2023-03-23T12:11:23;1.17;;;0.80;;
4980;SDS011;2507;50.392;7.482;2023-03-23T12:13:56;4.00;;;0.90;;
4980;SDS011;2507;50.392;7.482;2023-03-23T12:16:54;2.47;;;0.90;;
4980;SDS011;2507;50.392;7.482;2023-03-23T12:22:30;0.87;;;0.70;;
4980;SDS011;2507;50.392;7.482;2023-03-23T12:30:38;0.93;;;0.93;;
4980;SDS011;2507;50.392;7.482;2023-03-23T12:33:27;1.20;;;1.10;;
4980;SDS011;2507;50.392;7.482;2023-03-23T12:36:03;1.23;;;1.20;;
4980;SDS011;2507;50.392;7.482;2023-03-23T12:44:24;1.53;;;1.43;;
4980;SDS011;2507;50.392;7.482;2023-03-23T12:49:50;2.20;;;1.20;;
4980;SDS011;2507;50.392;7.482;2023-03-23T12:57:21;2.03;;;1.37;;
4980;SDS011;2507;50.392;7.482;2023-03-23T13:05:08;1.53;;;0.80;;
4980;SDS011;2507;50.392;7.482;2023-03-23T13:07:47;0.80;;;0.80;;
4980;SDS011;2507;50.392;7.482;2023-03-23T13:10:50;2.17;;;1.17;;
4980;SDS011;2507;50.392;7.482;2023-03-23T13:13:14;0.90;;;0.90;;
4980;SDS011;2507;50.392;7.482;2023-03-23T13:18:41;2.33;;;1.00;;
4980;SDS011;2507;50.392;7.482;2023-03-23T13:21:23;1.00;;;0.70;;
4980;SDS011;2507;50.392;7.482;2023-03-23T13:23:59;1.40;;;0.73;;
4980;SDS011;2507;50.392;7.482;2023-03-23T13:26:28;1.03;;;0.90;;
4980;SDS011;2507;50.392;7.482;2023-03-23T13:31:44;1.20;;;1.20;;
4980;SDS011;2507;50.392;7.482;2023-03-23T13:34:15;2.93;;;1.00;;
4980;SDS011;2507;50.392;7.482;2023-03-23T13:36:52;2.20;;;1.10;;
4980;SDS011;2507;50.392;7.482;2023-03-23T13:39:36;1.80;;;1.20;;
4980;SDS011;2507;50.392;7.482;2023-03-23T13:44:55;1.53;;;1.03;;
4980;SDS011;2507;50.392;7.482;2023-03-23T13:47:35;1.90;;;1.30;;
4980;SDS011;2507;50.392;7.482;2023-03-23T13:55:21;2.13;;;1.97;;
4980;SDS011;2507;50.392;7.482;2023-03-23T14:03:14;1.73;;;1.10;;
4980;SDS011;2507;50.392;7.482;2023-03-23T14:08:35;1.10;;;0.97;;
4980;SDS011;2507;50.392;7.482;2023-03-23T14:11:10;1.70;;;1.10;;
4980;SDS011;2507;50.392;7.482;2023-03-23T14:13:56;1.60;;;0.90;;
4980;SDS011;2507;50.392;7.482;2023-03-23T14:17:12;1.13;;;1.03;;
4980;SDS011;2507;50.392;7.482;2023-03-23T14:19:29;1.33;;;1.10;;
4980;SDS011;2507;50.392;7.482;2023-03-23T14:21:57;0.83;;;0.83;;
4980;SDS011;2507;50.392;7.482;2023-03-23T14:24:24;1.40;;;1.30;;
4980;SDS011;2507;50.392;7.482;2023-03-23T14:26:53;1.27;;;1.23;;
4980;SDS011;2507;50.392;7.482;2023-03-23T14:29:26;1.20;;;1.10;;
4980;SDS011;2507;50.392;7.482;2023-03-23T14:31:56;1.27;;;1.17;;
4980;SDS011;2507;50.392;7.482;2023-03-23T14:34:24;3.37;;;2.17;;
4980;SDS011;2507;50.392;7.482;2023-03-23T14:36:53;2.20;;;1.73;;
4980;SDS011;2507;50.392;7.482;2023-03-23T14:41:54;4.40;;;1.30;;
4980;SDS011;2507;50.392;7.482;2023-03-23T14:44:34;2.00;;;1.40;;
4980;SDS011;2507;50.392;7.482;2023-03-23T14:47:03;1.63;;;1.50;;
4980;SDS011;2507;50.392;7.482;2023-03-23T14:49:35;1.90;;;1.40;;
4980;SDS011;2507;50.392;7.482;2023-03-23T14:52:12;1.30;;;1.30;;
4980;SDS011;2507;50.392;7.482;2023-03-23T14:54:39;3.70;;;1.60;;
4980;SDS011;2507;50.392;7.482;2023-03-23T14:57:18;1.23;;;1.13;;
4980;SDS011;2507;50.392;7.482;2023-03-23T14:59:51;2.20;;;1.23;;
4980;SDS011;2507;50.392;7.482;2023-03-23T15:02:20;4.27;;;2.00;;
4980;SDS011;2507;50.392;7.482;2023-03-23T15:04:52;2.17;;;1.10;;
4980;SDS011;2507;50.392;7.482;2023-03-23T15:07:21;1.60;;;1.50;;
4980;SDS011;2507;50.392;7.482;2023-03-23T15:09:51;4.30;;;3.13;;
4980;SDS011;2507;50.392;7.482;2023-03-23T15:12:24;1.90;;;1.80;;
4980;SDS011;2507;50.392;7.482;2023-03-23T15:15:01;3.77;;;1.80;;
4980;SDS011;2507;50.392;7.482;2023-03-23T15:17:31;1.70;;;1.60;;
4980;SDS011;2507;50.392;7.482;2023-03-23T15:20:07;2.10;;;1.90;;
4980;SDS011;2507;50.392;7.482;2023-03-23T15:22:47;4.50;;;2.10;;
4980;SDS011;2507;50.392;7.482;2023-03-23T15:27:55;1.80;;;1.63;;
4980;SDS011;2507;50.392;7.482;2023-03-23T15:30:33;3.00;;;1.73;;
4980;SDS011;2507;50.392;7.482;2023-03-23T15:33:03;1.47;;;1.40;;
4980;SDS011;2507;50.392;7.482;2023-03-23T15:35:35;2.47;;;1.50;;
4980;SDS011;2507;50.392;7.482;2023-03-23T15:38:03;2.17;;;1.97;;
4980;SDS011;2507;50.392;7.482;2023-03-23T15:40:34;2.10;;;1.47;;
4980;SDS011;2507;50.392;7.482;2023-03-23T15:43:18;2.00;;;1.50;;
4980;SDS011;2507;50.392;7.482;2023-03-23T15:45:52;2.50;;;1.80;;
4980;SDS011;2507;50.392;7.482;2023-03-23T15:48:28;4.77;;;1.77;;
4980;SDS011;2507;50.392;7.482;2023-03-23T15:50:55;1.50;;;1.40;;
4980;SDS011;2507;50.392;7.482;2023-03-23T15:53:34;1.50;;;1.17;;
4980;SDS011;2507;50.392;7.482;2023-03-23T15:56:03;2.10;;;1.53;;
4980;SDS011;2507;50.392;7.482;2023-03-23T15:58:30;5.50;;;1.70;;
4980;SDS011;2507;50.392;7.482;2023-03-23T16:00:57;1.57;;;1.40;;
4980;SDS011;2507;50.392;7.482;2023-03-23T16:03:25;10.20;;;3.40;;
4980;SDS011;2507;50.392;7.482;2023-03-23T16:05:56;4.80;;;2.17;;
4980;SDS011;2507;50.392;7.482;2023-03-23T16:08:24;2.87;;;2.63;;
4980;SDS011;2507;50.392;7.482;2023-03-23T16:10:50;5.23;;;2.20;;
4980;SDS011;2507;50.392;7.482;2023-03-23T16:13:15;5.10;;;2.30;;
4980;SDS011;2507;50.392;7.482;2023-03-23T16:15:42;2.50;;;1.50;;
4980;SDS011;2507;50.392;7.482;2023-03-23T16:18:10;2.80;;;2.13;;
4980;SDS011;2507;50.392;7.482;2023-03-23T16:20:41;3.00;;;2.30;;
4980;SDS011;2507;50.392;7.482;2023-03-23T16:23:07;4.60;;;2.90;;
4980;SDS011;2507;50.392;7.482;2023-03-23T16:25:32;2.93;;;1.90;;
4980;SDS011;2507;50.392;7.482;2023-03-23T16:27:58;3.70;;;1.80;;
4980;SDS011;2507;50.392;7.482;2023-03-23T16:30:24;3.03;;;1.70;;
4980;SDS011;2507;50.392;7.482;2023-03-23T16:32:51;4.60;;;2.10;;
4980;SDS011;2507;50.392;7.482;2023-03-23T16:35:17;4.27;;;2.37;;
4980;SDS011;2507;50.392;7.482;2023-03-23T16:37:44;2.03;;;1.90;;
4980;SDS011;2507;50.392;7.482;2023-03-23T16:40:11;3.80;;;2.00;;
4980;SDS011;2507;50.392;7.482;2023-03-23T16:42:37;3.73;;;2.03;;
4980;SDS011;2507;50.392;7.482;2023-03-23T16:45:03;3.37;;;2.00;;
4980;SDS011;2507;50.392;7.482;2023-03-23T16:47:28;3.77;;;2.70;;
4980;SDS011;2507;50.392;7.482;2023-03-23T16:49:53;5.20;;;2.27;;
4980;SDS011;2507;50.392;7.482;2023-03-23T16:52:19;4.43;;;1.93;;
4980;SDS011;2507;50.392;7.482;2023-03-23T16:54:44;2.23;;;2.07;;
4980;SDS011;2507;50.392;7.482;2023-03-23T16:57:10;4.07;;;2.20;;
4980;SDS011;2507;50.392;7.482;2023-03-23T16:59:36;4.40;;;2.20;;
4980;SDS011;2507;50.392;7.482;2023-03-23T17:02:01;5.40;;;2.33;;
4980;SDS011;2507;50.392;7.482;2023-03-23T17:04:31;3.20;;;1.83;;
4980;SDS011;2507;50.392;7.482;2023-03-23T17:06:57;6.97;;;3.37;;
4980;SDS011;2507;50.392;7.482;2023-03-23T17:09:26;3.57;;;2.10;;